createdAt,value
2019-05-12T00:02:48.473Z,2.30
2019-05-12T00:07:50.075Z,2.10
2019-05-12T00:12:51.787Z,2.50
2019-05-12T00:17:53.367Z,2.30
2019-05-12T00:22:58.216Z,2.37
2019-05-12T00:27:59.871Z,2.20
2019-05-12T00:33:01.788Z,2.50
2019-05-12T00:38:03.483Z,2.20
2019-05-12T00:43:05.070Z,2.40
2019-05-12T00:48:09.156Z,2.60
2019-05-12T00:53:10.531Z,1.97
2019-05-12T00:58:12.112Z,2.23
2019-05-12T01:03:13.793Z,2.40
2019-05-12T01:08:15.373Z,2.20
2019-05-12T01:13:18.712Z,2.50
2019-05-12T01:18:20.571Z,1.97
2019-05-12T01:23:23.514Z,2.00
2019-05-12T01:28:27.696Z,1.90
2019-05-12T01:33:29.026Z,1.80
2019-05-12T01:38:30.607Z,1.57
2019-05-12T01:43:32.287Z,1.80
2019-05-12T01:48:33.842Z,2.10
2019-05-12T01:53:37.640Z,1.80
2019-05-12T01:58:38.918Z,1.50
2019-05-12T02:03:40.480Z,1.40
2019-05-12T02:08:48.189Z,1.00
2019-05-12T02:13:49.770Z,1.30
2019-05-12T02:18:51.440Z,1.50
2019-05-12T02:23:53.108Z,1.47
2019-05-12T02:28:54.819Z,1.40
2019-05-12T02:33:56.370Z,1.30
2019-05-12T02:38:57.938Z,1.10
2019-05-12T02:43:59.491Z,1.60
2019-05-12T02:49:01.165Z,1.20
2019-05-12T02:54:05.475Z,2.00
2019-05-12T02:59:07.264Z,1.90
2019-05-12T03:04:10.808Z,1.70
2019-05-12T03:09:15.119Z,1.50
2019-05-12T03:14:16.148Z,1.80
2019-05-12T03:19:17.805Z,2.10
2019-05-12T03:24:19.412Z,3.60
2019-05-12T03:29:21.064Z,2.20
2019-05-12T03:34:28.733Z,1.93
2019-05-12T03:39:26.107Z,2.57
2019-05-12T03:44:27.675Z,2.33
2019-05-12T03:49:29.267Z,2.00
2019-05-12T03:54:30.950Z,2.10
2019-05-12T03:59:34.848Z,2.07
2019-05-12T04:04:36.108Z,2.30
2019-05-12T04:09:37.676Z,2.33
2019-05-12T04:14:39.218Z,2.00
2019-05-12T04:19:40.797Z,2.10
2019-05-12T04:24:44.528Z,2.07
2019-05-12T04:29:45.830Z,1.60
2019-05-12T04:34:47.432Z,1.83
2019-05-12T04:39:49.006Z,2.10
2019-05-12T04:44:50.588Z,1.87
2019-05-12T04:49:54.641Z,1.73
2019-05-12T04:54:55.650Z,2.20
2019-05-12T04:59:57.214Z,2.30
2019-05-12T05:04:58.792Z,1.50
2019-05-12T05:10:00.396Z,1.70
2019-05-12T05:15:02.079Z,1.70
2019-05-12T05:20:04.195Z,2.20
2019-05-12T05:25:05.805Z,1.70
2019-05-12T05:30:07.614Z,1.60
2019-05-12T05:35:09.498Z,2.50
2019-05-12T05:40:13.858Z,1.73
2019-05-12T05:45:19.582Z,1.70
2019-05-12T05:50:23.553Z,1.47
2019-05-12T05:55:23.371Z,2.07
2019-05-12T06:00:26.374Z,1.93
2019-05-12T06:05:30.795Z,2.13
2019-05-12T06:10:36.197Z,1.73
2019-05-12T06:15:40.449Z,1.87
2019-05-12T06:20:38.695Z,1.63
2019-05-12T06:25:49.454Z,1.53
2019-05-12T06:30:47.120Z,2.27
2019-05-12T06:35:47.280Z,1.70
2019-05-12T06:40:48.847Z,1.87
2019-05-12T06:45:50.409Z,1.70
2019-05-12T06:50:53.477Z,2.03
2019-05-12T06:55:55.135Z,1.97
2019-05-12T07:00:56.852Z,1.77
2019-05-12T07:05:58.457Z,2.07
2019-05-12T07:11:03.706Z,2.10
2019-05-12T07:16:19.100Z,1.80
2019-05-12T07:21:20.280Z,1.97
2019-05-12T07:26:23.539Z,1.80
2019-05-12T07:31:24.934Z,2.00
2019-05-12T07:36:26.760Z,1.80
2019-05-12T07:41:30.378Z,1.90
2019-05-12T07:46:34.051Z,1.97
2019-05-12T07:51:40.418Z,2.30
2019-05-12T07:56:41.044Z,2.80
2019-05-12T08:01:50.198Z,2.20
2019-05-12T08:06:47.073Z,2.00
2019-05-12T08:11:48.687Z,2.60
2019-05-12T08:16:50.248Z,2.63
2019-05-12T08:21:53.715Z,2.43
2019-05-12T08:27:01.498Z,2.37
2019-05-12T08:31:58.801Z,1.90
2019-05-12T08:37:00.344Z,1.97
2019-05-12T08:42:04.008Z,2.47
2019-05-12T08:47:05.830Z,2.30
2019-05-12T08:52:07.412Z,2.57
2019-05-12T08:57:09.013Z,2.20
2019-05-12T09:02:10.962Z,2.40
2019-05-12T09:07:13.824Z,2.33
2019-05-12T09:12:15.877Z,2.67
2019-05-12T09:17:17.443Z,2.30
2019-05-12T09:22:21.065Z,2.27
2019-05-12T09:27:24.133Z,2.10
2019-05-12T09:32:26.023Z,2.30
2019-05-12T09:37:31.000Z,2.10
2019-05-12T09:42:32.999Z,2.13
2019-05-12T09:47:34.590Z,1.60
2019-05-12T09:52:36.355Z,1.43
2019-05-12T09:57:40.902Z,1.60
2019-05-12T10:02:43.436Z,1.60
2019-05-12T10:07:45.129Z,1.20
2019-05-12T10:12:50.485Z,1.20
2019-05-12T10:17:50.190Z,1.10
2019-05-12T10:22:54.144Z,1.30
2019-05-12T10:27:55.383Z,0.93
2019-05-12T10:32:57.096Z,0.97
2019-05-12T10:38:00.088Z,1.13
2019-05-12T10:43:04.588Z,0.80
2019-05-12T10:48:05.777Z,1.13
2019-05-12T10:53:09.773Z,1.00
2019-05-12T10:58:11.009Z,0.90
2019-05-12T11:03:15.630Z,0.90
2019-05-12T11:08:17.585Z,0.90
2019-05-12T11:13:19.216Z,1.00
2019-05-12T11:18:26.236Z,0.90
2019-05-12T11:23:25.574Z,0.80
2019-05-12T11:28:27.215Z,0.77
2019-05-12T11:33:28.807Z,0.93
2019-05-12T11:38:30.576Z,0.73
2019-05-12T11:43:33.792Z,0.80
2019-05-12T11:48:40.240Z,0.73
2019-05-12T11:53:38.988Z,1.00
2019-05-12T11:58:41.380Z,0.70
2019-05-12T12:03:44.173Z,1.02
2019-05-12T12:08:45.726Z,0.95
2019-05-12T12:13:49.999Z,0.80
2019-05-12T12:19:02.282Z,0.95
2019-05-12T12:23:55.866Z,0.72
2019-05-12T12:28:57.432Z,0.98
2019-05-12T12:33:59.003Z,0.70
2019-05-12T12:39:00.574Z,0.72
2019-05-12T12:44:04.450Z,0.80
2019-05-12T12:49:10.259Z,0.90
2019-05-12T12:54:09.184Z,0.80
2019-05-12T12:59:12.652Z,0.88
2019-05-12T13:04:14.342Z,0.60
2019-05-12T13:09:24.237Z,0.70
2019-05-12T13:14:19.674Z,0.60
2019-05-12T13:19:21.348Z,0.68
2019-05-12T13:24:22.906Z,0.82
2019-05-12T13:29:28.335Z,0.60
2019-05-12T13:34:28.832Z,0.75
2019-05-12T13:39:33.558Z,0.90
2019-05-12T13:44:38.730Z,0.60
2019-05-12T13:49:42.679Z,0.70
2019-05-12T13:54:43.691Z,0.57
2019-05-12T13:59:45.425Z,0.65
2019-05-12T14:04:46.989Z,0.60
2019-05-12T14:09:50.057Z,0.70
2019-05-12T14:14:51.614Z,1.15
2019-05-12T14:19:53.371Z,0.57
2019-05-12T14:24:54.994Z,0.60
2019-05-12T14:30:00.281Z,0.70
2019-05-12T14:35:00.819Z,0.60
2019-05-12T14:40:04.502Z,0.62
2019-05-12T14:45:06.541Z,0.60
2019-05-12T14:50:08.231Z,0.60
2019-05-12T14:55:09.897Z,0.70
2019-05-12T15:00:17.558Z,0.30
2019-05-12T15:05:15.363Z,0.68
2019-05-12T15:10:17.035Z,0.50
2019-05-12T15:15:20.754Z,0.80
2019-05-12T15:20:24.069Z,0.55
2019-05-12T15:25:29.333Z,0.60
2019-05-12T15:30:29.286Z,0.68
2019-05-12T15:35:30.834Z,0.55
2019-05-12T15:40:32.422Z,0.78
2019-05-12T15:45:34.369Z,0.55
2019-05-12T15:50:36.069Z,0.72
2019-05-12T15:55:37.613Z,0.60
2019-05-12T16:00:39.163Z,0.82
2019-05-12T16:05:40.734Z,0.60
2019-05-12T16:10:43.045Z,0.70
2019-05-12T16:15:49.341Z,0.60
2019-05-12T16:20:48.051Z,0.88
2019-05-12T16:25:49.619Z,0.60
2019-05-12T16:30:53.492Z,0.50
2019-05-12T16:35:54.750Z,0.60
2019-05-12T16:40:58.122Z,0.55
2019-05-12T16:45:59.688Z,0.60
2019-05-12T16:51:03.318Z,0.50
2019-05-12T16:56:04.783Z,0.62
2019-05-12T17:01:06.481Z,0.60
2019-05-12T17:06:08.169Z,0.53
2019-05-12T17:11:24.291Z,0.50
2019-05-12T17:16:13.752Z,0.42
2019-05-12T17:21:15.458Z,0.82
2019-05-12T17:26:17.023Z,0.57
2019-05-12T17:31:18.594Z,0.40
2019-05-12T17:36:20.258Z,0.50
2019-05-12T17:41:23.617Z,0.40
2019-05-12T17:46:25.303Z,1.00
2019-05-12T17:51:30.919Z,0.70
2019-05-12T17:56:34.222Z,0.80
2019-05-12T18:01:35.587Z,0.70
2019-05-12T18:06:37.220Z,0.72
2019-05-12T18:11:38.792Z,0.72
2019-05-12T18:16:43.324Z,0.50
2019-05-12T18:21:45.078Z,0.70
2019-05-12T18:26:55.302Z,0.50
2019-05-12T18:31:52.773Z,0.53
2019-05-12T18:36:58.102Z,0.50
2019-05-12T18:41:57.355Z,0.85
2019-05-12T18:46:58.942Z,0.62
2019-05-12T18:52:00.544Z,0.72
2019-05-12T18:57:06.402Z,0.60
2019-05-12T19:02:05.786Z,0.70
2019-05-12T19:07:07.366Z,0.60
2019-05-12T19:12:17.843Z,0.70
2019-05-12T19:17:14.315Z,0.70
2019-05-12T19:22:15.893Z,0.63
2019-05-12T19:27:20.759Z,0.40
2019-05-12T19:32:21.095Z,0.70
2019-05-12T19:37:26.417Z,0.80
2019-05-12T19:42:26.200Z,0.80
2019-05-12T19:47:33.130Z,0.97
2019-05-12T19:52:31.247Z,0.90
2019-05-12T19:57:33.504Z,0.60
2019-05-12T20:02:35.391Z,0.80
2019-05-12T20:07:36.961Z,1.00
2019-05-12T20:12:38.595Z,0.63
2019-05-12T20:17:40.171Z,0.80
2019-05-12T20:22:43.934Z,0.47
2019-05-12T20:27:45.279Z,0.80
2019-05-12T20:32:46.842Z,0.87
2019-05-12T20:37:52.990Z,0.73
2019-05-12T20:43:07.288Z,0.80
2019-05-12T20:47:55.518Z,1.00
2019-05-12T20:52:58.944Z,1.10
2019-05-12T20:58:00.610Z,0.90
2019-05-12T21:03:04.236Z,0.90
2019-05-12T21:08:11.725Z,1.03
2019-05-12T21:13:09.163Z,0.80
2019-05-12T21:18:10.710Z,1.10
2019-05-12T21:23:13.529Z,0.90
2019-05-12T21:28:15.367Z,0.90
2019-05-12T21:33:17.146Z,0.93
2019-05-12T21:38:24.112Z,0.70
2019-05-12T21:43:22.186Z,1.00
2019-05-12T21:48:26.529Z,1.03
2019-05-12T21:53:27.263Z,0.80
2019-05-12T21:58:28.946Z,1.07
2019-05-12T22:03:30.580Z,0.90
2019-05-12T22:08:33.805Z,0.90
2019-05-12T22:13:35.740Z,0.90
2019-05-12T22:18:37.415Z,1.37
2019-05-12T22:23:42.678Z,0.90
2019-05-12T22:28:46.636Z,0.70
2019-05-12T22:33:51.526Z,0.97
2019-05-12T22:38:54.313Z,1.00
2019-05-12T22:43:53.828Z,0.70
2019-05-12T22:48:55.573Z,0.60
2019-05-12T22:54:00.478Z,0.67
2019-05-12T22:59:01.569Z,0.80
2019-05-12T23:04:03.900Z,0.90
2019-05-12T23:09:06.242Z,1.00
2019-05-12T23:14:12.617Z,0.80
2019-05-12T23:19:12.280Z,1.17
2019-05-12T23:24:14.786Z,0.70
2019-05-12T23:29:20.392Z,0.90
2019-05-12T23:34:19.803Z,0.70
2019-05-12T23:39:23.437Z,0.70
2019-05-12T23:44:24.931Z,0.67
2019-05-12T23:49:26.510Z,0.70
2019-05-12T23:54:28.177Z,0.73
2019-05-12T23:59:29.727Z,0.80
